Time;durP1;ratioP1;P1;durP2;ratioP2;P2;SDS_P1;SDS_P2;PMS_P1;PMS_P2;Temp;Humidity;BMP_temperature;BMP_pressure;BME280_temperature;BME280_humidity;BME280_pressure;Samples;Min_cycle;Max_cycle;Signal;HPM_P1;HPM_P2
2021/05/17 00:06:55;;;;;;;8.10;4.00;;;;;;;;;;5107572;23;20475;-96
2021/05/17 00:20:43;;;;;;;11.23;6.50;;;;;;;;;;5485866;22;20564;-96
2021/05/17 00:25:51;;;;;;;5.50;5.00;;;;;;;;;;5034837;28;21269;-96
2021/05/17 00:28:23;;;;;;;5.00;4.50;;;;;;;;;;5073264;28;20461;-96
2021/05/17 00:37:10;;;;;;;6.23;5.57;;;;;;;;;;5092684;28;20437;-96
2021/05/17 00:50:35;;;;;;;9.80;8.70;;;;;;;;;;5048116;28;20447;-96
2021/05/17 01:17:11;;;;;;;10.27;8.00;;;;;;;;;;5635272;22;20855;-95
2021/05/17 01:25:23;;;;;;;10.47;8.33;;;;;;;;;;5291535;22;20569;-96
2021/05/17 01:27:54;;;;;;;9.97;7.70;;;;;;;;;;5057980;28;20512;-96
2021/05/17 01:30:23;;;;;;;9.10;7.23;;;;;;;;;;5052334;28;20527;-96
2021/05/17 01:32:52;;;;;;;7.80;6.37;;;;;;;;;;5055512;28;20958;-96
2021/05/17 01:35:18;;;;;;;7.73;6.40;;;;;;;;;;5053376;28;20466;-96
2021/05/17 01:37:45;;;;;;;10.40;7.37;;;;;;;;;;5047176;28;20465;-96
2021/05/17 01:43:17;;;;;;;6.90;6.20;;;;;;;;;;5538542;23;20501;-96
2021/05/17 01:45:44;;;;;;;9.53;7.17;;;;;;;;;;5055740;28;20464;-96
2021/05/17 01:48:10;;;;;;;12.10;8.07;;;;;;;;;;5055021;28;20522;-95
2021/05/17 01:50:37;;;;;;;11.20;8.40;;;;;;;;;;5050002;28;20473;-96
2021/05/17 01:53:03;;;;;;;8.70;7.03;;;;;;;;;;5057405;28;20434;-96
2021/05/17 01:55:29;;;;;;;10.13;6.30;;;;;;;;;;5056259;28;20451;-96
2021/05/17 01:58:05;;;;;;;6.83;6.10;;;;;;;;;;5058059;28;20461;-96
2021/05/17 02:00:32;;;;;;;7.53;5.83;;;;;;;;;;5047437;28;21163;-96
2021/05/17 02:02:59;;;;;;;8.80;5.77;;;;;;;;;;5050171;28;20458;-96
2021/05/17 02:05:25;;;;;;;8.57;6.47;;;;;;;;;;5058618;28;20470;-96
2021/05/17 02:07:54;;;;;;;8.97;6.43;;;;;;;;;;5041736;28;20513;-96
2021/05/17 02:10:53;;;;;;;9.23;7.27;;;;;;;;;;5065159;28;20510;-93
2021/05/17 02:13:20;;;;;;;5.80;5.20;;;;;;;;;;5027326;28;20492;-96
2021/05/17 02:15:48;;;;;;;8.63;5.47;;;;;;;;;;5053428;28;20458;-96
2021/05/17 02:18:17;;;;;;;8.63;6.47;;;;;;;;;;5050508;28;21060;-96
2021/05/17 02:20:43;;;;;;;7.20;5.80;;;;;;;;;;5050454;28;20450;-96
2021/05/17 02:23:10;;;;;;;8.60;6.60;;;;;;;;;;5043704;28;20470;-96
2021/05/17 02:25:36;;;;;;;10.97;7.30;;;;;;;;;;5061689;28;20457;-96
2021/05/17 02:28:03;;;;;;;8.30;6.33;;;;;;;;;;5055540;28;20496;-96
2021/05/17 02:30:29;;;;;;;8.03;6.87;;;;;;;;;;5057458;28;20457;-96
2021/05/17 02:32:57;;;;;;;12.50;7.00;;;;;;;;;;5054026;28;20450;-96
2021/05/17 02:35:23;;;;;;;13.07;8.80;;;;;;;;;;5059430;28;20460;-96
2021/05/17 02:37:54;;;;;;;13.83;9.80;;;;;;;;;;5055733;28;20468;-96
2021/05/17 02:40:28;;;;;;;14.70;9.70;;;;;;;;;;5060122;28;20434;-96
2021/05/17 02:43:03;;;;;;;9.70;8.67;;;;;;;;;;5054125;28;20457;-96
2021/05/17 02:48:46;;;;;;;15.13;7.30;;;;;;;;;;5057463;28;20441;-96
2021/05/17 02:51:13;;;;;;;10.73;7.63;;;;;;;;;;5054155;28;20454;-96
2021/05/17 02:54:11;;;;;;;7.97;7.17;;;;;;;;;;5059170;28;20442;-96
2021/05/17 02:56:48;;;;;;;9.77;8.03;;;;;;;;;;5031297;28;20455;-96
2021/05/17 02:59:18;;;;;;;11.60;8.20;;;;;;;;;;5068655;28;20455;-96
2021/05/17 03:08:01;;;;;;;22.60;12.50;;;;;;;;;;5057291;28;20501;-96
2021/05/17 03:10:44;;;;;;;21.07;13.20;;;;;;;;;;5055725;28;20493;-96
2021/05/17 03:13:11;;;;;;;107.40;18.63;;;;;;;;;;5062640;28;20490;-96
2021/05/17 03:15:38;;;;;;;44.70;14.03;;;;;;;;;;5052732;28;20454;-96
2021/05/17 03:18:05;;;;;;;49.43;14.90;;;;;;;;;;5054142;28;20459;-96
2021/05/17 03:33:36;;;;;;;18.63;12.77;;;;;;;;;;5084400;28;20496;-96
2021/05/17 03:36:03;;;;;;;15.17;10.83;;;;;;;;;;5059292;28;20460;-96
2021/05/17 03:38:29;;;;;;;27.53;10.90;;;;;;;;;;5084261;28;20566;-96
2021/05/17 03:40:55;;;;;;;18.43;11.07;;;;;;;;;;5090257;28;20453;-96
2021/05/17 03:43:24;;;;;;;17.70;10.30;;;;;;;;;;5091747;28;20441;-96
2021/05/17 03:45:52;;;;;;;23.73;10.30;;;;;;;;;;5080528;28;20472;-96
2021/05/17 03:51:37;;;;;;;38.97;11.00;;;;;;;;;;5080256;28;20575;-96
2021/05/17 03:54:07;;;;;;;28.97;10.20;;;;;;;;;;5078817;28;20430;-96
2021/05/17 03:56:35;;;;;;;27.23;11.27;;;;;;;;;;5079351;28;20536;-97
2021/05/17 03:59:13;;;;;;;25.77;11.23;;;;;;;;;;5077339;28;20456;-96
2021/05/17 04:01:39;;;;;;;10.50;8.60;;;;;;;;;;5080375;28;20457;-96
2021/05/17 04:04:14;;;;;;;19.20;10.30;;;;;;;;;;5073931;28;20446;-96
2021/05/17 04:06:47;;;;;;;15.93;10.00;;;;;;;;;;5157800;23;20492;-96
2021/05/17 04:14:45;;;;;;;9.23;7.50;;;;;;;;;;5084084;28;20459;-96
2021/05/17 04:17:12;;;;;;;9.57;6.97;;;;;;;;;;5081714;28;20458;-96
2021/05/17 04:19:44;;;;;;;12.53;9.93;;;;;;;;;;5067791;28;20462;-96
2021/05/17 04:22:10;;;;;;;17.30;11.67;;;;;;;;;;5084279;28;20446;-96
2021/05/17 04:24:37;;;;;;;14.63;11.00;;;;;;;;;;5078446;28;20458;-96
2021/05/17 04:46:39;;;;;;;14.20;11.63;;;;;;;;;;4500938;22;21021;-96
2021/05/17 04:49:33;;;;;;;15.30;11.27;;;;;;;;;;5075238;23;20485;-97
2021/05/17 04:52:01;;;;;;;15.50;11.00;;;;;;;;;;5524052;22;21459;-96
2021/05/17 04:54:27;;;;;;;16.43;11.93;;;;;;;;;;5085168;28;20580;-96
2021/05/17 05:22:46;;;;;;;17.53;13.50;;;;;;;;;;5053270;28;20948;-96
2021/05/17 05:25:13;;;;;;;18.60;13.90;;;;;;;;;;5078799;28;20469;-96
2021/05/17 05:28:04;;;;;;;19.23;13.63;;;;;;;;;;5112293;22;20505;-96
2021/05/17 05:30:49;;;;;;;20.53;13.97;;;;;;;;;;5062587;28;20439;-96
2021/05/17 05:33:16;;;;;;;19.80;14.50;;;;;;;;;;5234922;22;20496;-96
2021/05/17 06:03:25;;;;;;;15.30;13.57;;;;;;;;;;5339945;22;20477;-96
2021/05/17 06:11:18;;;;;;;12.63;11.30;;;;;;;;;;5653044;23;20473;-96
2021/05/17 06:16:48;;;;;;;12.70;11.40;;;;;;;;;;5463723;22;20501;-96
2021/05/17 06:30:16;;;;;;;9.77;8.43;;;;;;;;;;5065995;28;20496;-96
2021/05/17 06:33:01;;;;;;;10.13;9.13;;;;;;;;;;5285189;22;20474;-96
2021/05/17 06:40:37;;;;;;;11.67;9.80;;;;;;;;;;5619745;23;20482;-95
2021/05/17 06:43:05;;;;;;;12.43;10.57;;;;;;;;;;5070146;23;20518;-96
2021/05/17 06:50:59;;;;;;;12.47;11.10;;;;;;;;;;5097247;22;20493;-96
2021/05/17 06:53:27;;;;;;;18.03;10.70;;;;;;;;;;5073324;28;20464;-96
2021/05/17 07:07:09;;;;;;;16.70;14.33;;;;;;;;;;5156443;22;20478;-96
2021/05/17 07:14:48;;;;;;;16.83;14.65;;;;;;;;;;5410244;23;20469;-96
2021/05/17 07:25:28;;;;;;;17.27;15.60;;;;;;;;;;5398250;22;20572;-96
2021/05/17 07:27:54;;;;;;;17.63;16.00;;;;;;;;;;5089265;22;20550;-96
2021/05/17 07:30:21;;;;;;;16.40;14.90;;;;;;;;;;5698598;22;20478;-95
2021/05/17 07:32:49;;;;;;;16.27;14.73;;;;;;;;;;5089662;22;20414;-96
2021/05/17 07:37:56;;;;;;;15.93;14.07;;;;;;;;;;5079493;22;20498;-96
2021/05/17 07:40:22;;;;;;;15.80;13.20;;;;;;;;;;5075844;22;20491;-96
2021/05/17 07:42:50;;;;;;;16.40;12.27;;;;;;;;;;5053881;28;20449;-96
2021/05/17 07:45:18;;;;;;;13.87;12.40;;;;;;;;;;5053272;28;20448;-96
2021/05/17 07:47:44;;;;;;;12.90;11.70;;;;;;;;;;5075362;23;20480;-96
2021/05/17 07:52:45;;;;;;;14.30;13.00;;;;;;;;;;5269607;22;20504;-96
2021/05/17 07:55:12;;;;;;;14.97;12.90;;;;;;;;;;5079153;28;20453;-95
2021/05/17 07:58:00;;;;;;;13.83;12.53;;;;;;;;;;5069994;28;20458;-96
2021/05/17 08:00:27;;;;;;;13.30;11.90;;;;;;;;;;5090208;23;20612;-96
2021/05/17 08:02:53;;;;;;;16.53;12.80;;;;;;;;;;5071409;28;20489;-96
2021/05/17 08:05:19;;;;;;;14.47;13.00;;;;;;;;;;5077124;28;20449;-95
2021/05/17 08:07:45;;;;;;;15.63;12.70;;;;;;;;;;5071693;28;20483;-96
2021/05/17 08:10:13;;;;;;;16.33;13.27;;;;;;;;;;5071199;28;20462;-96
2021/05/17 08:12:41;;;;;;;14.60;12.70;;;;;;;;;;5080606;28;20427;-96
2021/05/17 08:15:08;;;;;;;18.90;14.13;;;;;;;;;;5072819;28;20544;-96
2021/05/17 08:18:22;;;;;;;15.80;13.13;;;;;;;;;;5068273;28;20463;-95
2021/05/17 08:20:52;;;;;;;14.63;12.40;;;;;;;;;;5082733;28;21201;-96
2021/05/17 08:23:18;;;;;;;14.63;13.13;;;;;;;;;;5085021;28;20460;-96
2021/05/17 08:25:45;;;;;;;14.60;12.90;;;;;;;;;;5076666;28;20477;-96
2021/05/17 08:28:12;;;;;;;13.93;12.53;;;;;;;;;;5072006;28;20495;-96
2021/05/17 08:30:42;;;;;;;14.07;12.70;;;;;;;;;;5081917;28;20473;-96
2021/05/17 08:33:08;;;;;;;14.20;12.70;;;;;;;;;;5072805;28;20476;-96
2021/05/17 08:35:35;;;;;;;13.27;11.87;;;;;;;;;;5068398;28;20454;-96
2021/05/17 08:38:02;;;;;;;15.80;12.07;;;;;;;;;;5064908;28;20454;-96
2021/05/17 08:43:08;;;;;;;14.00;12.70;;;;;;;;;;5075273;28;20471;-96
2021/05/17 08:45:35;;;;;;;17.40;11.83;;;;;;;;;;5073466;28;20453;-96
2021/05/17 08:48:01;;;;;;;13.23;11.87;;;;;;;;;;5080040;28;20518;-96
2021/05/17 08:53:03;;;;;;;13.50;12.10;;;;;;;;;;5065445;23;20505;-95
2021/05/17 08:55:30;;;;;;;12.87;11.57;;;;;;;;;;5051917;28;20426;-96
2021/05/17 08:57:56;;;;;;;12.80;11.30;;;;;;;;;;5052811;28;20441;-96
2021/05/17 09:00:23;;;;;;;9.57;8.77;;;;;;;;;;5043610;28;20457;-96
2021/05/17 09:02:49;;;;;;;9.80;8.90;;;;;;;;;;5044518;28;20466;-96
2021/05/17 09:08:05;;;;;;;12.00;10.00;;;;;;;;;;5202436;23;20465;-96
2021/05/17 09:10:34;;;;;;;10.87;9.77;;;;;;;;;;5081965;22;20504;-96
2021/05/17 09:13:02;;;;;;;10.50;9.50;;;;;;;;;;5059296;28;20490;-96
2021/05/17 09:15:29;;;;;;;10.93;9.13;;;;;;;;;;5033679;28;20438;-96
2021/05/17 09:17:56;;;;;;;10.70;8.50;;;;;;;;;;5062915;28;20479;-95
2021/05/17 09:20:22;;;;;;;12.10;9.43;;;;;;;;;;5061070;28;20919;-96
2021/05/17 09:22:50;;;;;;;10.53;9.63;;;;;;;;;;5062115;28;20454;-96
2021/05/17 09:25:17;;;;;;;11.23;9.87;;;;;;;;;;5051464;28;20840;-95
2021/05/17 09:27:46;;;;;;;12.83;11.63;;;;;;;;;;5051040;28;20499;-95
2021/05/17 09:30:13;;;;;;;13.33;12.03;;;;;;;;;;5054105;28;21186;-95
2021/05/17 09:32:39;;;;;;;12.17;11.07;;;;;;;;;;5057651;28;20415;-96
2021/05/17 09:35:07;;;;;;;12.83;11.53;;;;;;;;;;5052948;28;20512;-95
2021/05/17 09:37:43;;;;;;;12.63;10.70;;;;;;;;;;5058478;28;20450;-95
2021/05/17 09:40:23;;;;;;;13.00;11.70;;;;;;;;;;5045067;28;20468;-96
2021/05/17 09:42:59;;;;;;;13.27;11.97;;;;;;;;;;5057013;28;20452;-95
2021/05/17 09:45:29;;;;;;;13.23;11.93;;;;;;;;;;5052094;28;20559;-96
2021/05/17 09:47:56;;;;;;;12.80;11.50;;;;;;;;;;5050929;28;20495;-96
2021/05/17 09:50:22;;;;;;;14.40;12.17;;;;;;;;;;5056662;28;20452;-96
2021/05/17 09:52:48;;;;;;;12.50;10.53;;;;;;;;;;5041290;28;21039;-95
2021/05/17 09:55:14;;;;;;;13.73;11.30;;;;;;;;;;5051506;28;20462;-96
2021/05/17 09:57:42;;;;;;;12.60;11.47;;;;;;;;;;5058458;28;20514;-96
2021/05/17 10:00:11;;;;;;;14.20;10.53;;;;;;;;;;5049914;28;20453;-95
2021/05/17 10:02:39;;;;;;;20.97;10.60;;;;;;;;;;5047910;28;20492;-96
2021/05/17 10:05:11;;;;;;;10.83;9.73;;;;;;;;;;5049522;28;20481;-96
2021/05/17 10:07:37;;;;;;;12.33;10.30;;;;;;;;;;5046935;28;20478;-96
2021/05/17 10:10:05;;;;;;;13.47;9.70;;;;;;;;;;5056742;28;20482;-96
2021/05/17 10:12:31;;;;;;;14.17;9.23;;;;;;;;;;5040336;28;20489;-96
2021/05/17 10:15:01;;;;;;;10.20;8.73;;;;;;;;;;5055396;28;20445;-96
2021/05/17 10:17:27;;;;;;;13.90;9.50;;;;;;;;;;5053830;28;20451;-96
2021/05/17 10:19:53;;;;;;;13.43;8.30;;;;;;;;;;5054766;28;20458;-94
2021/05/17 10:22:19;;;;;;;10.70;8.87;;;;;;;;;;5052444;28;20450;-96
2021/05/17 10:24:46;;;;;;;10.90;8.00;;;;;;;;;;5047325;28;20467;-96
2021/05/17 10:27:13;;;;;;;8.23;7.40;;;;;;;;;;5029312;28;20451;-96
2021/05/17 10:29:39;;;;;;;7.43;6.80;;;;;;;;;;5059924;28;20453;-96
2021/05/17 10:32:09;;;;;;;10.40;9.10;;;;;;;;;;5046818;28;20454;-96
2021/05/17 10:34:48;;;;;;;13.57;9.90;;;;;;;;;;5063750;28;20451;-96
2021/05/17 10:37:18;;;;;;;11.30;10.30;;;;;;;;;;5050667;28;20470;-96
2021/05/17 10:39:55;;;;;;;15.37;9.93;;;;;;;;;;5132329;23;20490;-96
2021/05/17 10:42:30;;;;;;;10.03;9.20;;;;;;;;;;5058472;28;20475;-96
2021/05/17 10:48:22;;;;;;;11.13;10.13;;;;;;;;;;5386558;22;20483;-96
2021/05/17 10:50:50;;;;;;;12.30;10.90;;;;;;;;;;5079644;28;20441;-96
2021/05/17 10:53:43;;;;;;;12.63;9.13;;;;;;;;;;5062150;28;20453;-96
2021/05/17 10:56:10;;;;;;;12.93;9.20;;;;;;;;;;5028467;28;20440;-96
2021/05/17 11:01:48;;;;;;;9.17;7.50;;;;;;;;;;5097834;22;20492;-96
2021/05/17 11:04:28;;;;;;;12.03;9.50;;;;;;;;;;5074418;28;20461;-96
2021/05/17 11:07:12;;;;;;;12.77;10.10;;;;;;;;;;5086204;28;20445;-96
2021/05/17 11:09:51;;;;;;;10.67;9.60;;;;;;;;;;5065290;28;20460;-96
2021/05/17 11:12:36;;;;;;;12.40;8.37;;;;;;;;;;5072225;28;20445;-96
2021/05/17 11:15:02;;;;;;;6.00;5.50;;;;;;;;;;5071091;28;20496;-95
2021/05/17 11:17:29;;;;;;;5.20;4.80;;;;;;;;;;5124558;22;20494;-96
2021/05/17 11:19:55;;;;;;;4.70;4.10;;;;;;;;;;5075750;28;20466;-95
2021/05/17 11:22:21;;;;;;;4.30;3.90;;;;;;;;;;5115819;22;20490;-95
2021/05/17 11:24:47;;;;;;;3.80;3.50;;;;;;;;;;5076171;28;20452;-96
2021/05/17 11:27:17;;;;;;;5.03;3.43;;;;;;;;;;5082720;28;20541;-96
2021/05/17 11:29:43;;;;;;;3.30;3.00;;;;;;;;;;5072641;28;20457;-96
2021/05/17 11:32:13;;;;;;;3.27;2.50;;;;;;;;;;5080246;28;20598;-95
2021/05/17 11:34:58;;;;;;;3.50;2.70;;;;;;;;;;5065024;28;20527;-96
2021/05/17 11:37:24;;;;;;;2.80;2.60;;;;;;;;;;5081002;28;20453;-95
2021/05/17 11:39:50;;;;;;;4.70;2.60;;;;;;;;;;5064964;28;20457;-96
2021/05/17 11:45:24;;;;;;;2.67;2.20;;;;;;;;;;5607896;22;20579;-96
2021/05/17 11:47:52;;;;;;;2.63;2.30;;;;;;;;;;5053146;28;20469;-93
2021/05/17 11:50:19;;;;;;;2.37;2.27;;;;;;;;;;5066801;28;20457;-95
2021/05/17 11:52:46;;;;;;;2.50;2.30;;;;;;;;;;5083974;28;20463;-96
2021/05/17 11:55:12;;;;;;;2.67;2.10;;;;;;;;;;5073945;28;20464;-96
2021/05/17 11:57:40;;;;;;;2.63;2.40;;;;;;;;;;5086295;28;20449;-96
2021/05/17 12:00:08;;;;;;;4.63;2.10;;;;;;;;;;5080906;28;20467;-96
2021/05/17 12:02:43;;;;;;;2.50;2.30;;;;;;;;;;5098267;23;20440;-96
2021/05/17 12:05:10;;;;;;;2.43;2.23;;;;;;;;;;5071502;28;20451;-96
2021/05/17 12:07:42;;;;;;;3.20;2.30;;;;;;;;;;5058499;28;20487;-96
2021/05/17 12:10:08;;;;;;;2.23;2.13;;;;;;;;;;5069647;28;20451;-96
2021/05/17 12:12:34;;;;;;;2.50;2.17;;;;;;;;;;5056029;28;20458;-93
2021/05/17 12:15:03;;;;;;;6.30;2.27;;;;;;;;;;5054745;28;20524;-92
2021/05/17 12:17:33;;;;;;;2.70;2.23;;;;;;;;;;5047853;28;20545;-96
2021/05/17 12:20:00;;;;;;;2.20;2.10;;;;;;;;;;5055476;28;20476;-94
2021/05/17 12:22:31;;;;;;;2.30;2.20;;;;;;;;;;5045491;28;20473;-96
2021/05/17 12:24:57;;;;;;;3.17;2.27;;;;;;;;;;5053072;28;20454;-96
2021/05/17 12:27:23;;;;;;;2.40;2.23;;;;;;;;;;5059128;28;20460;-96
2021/05/17 12:29:53;;;;;;;4.83;2.30;;;;;;;;;;5060141;28;20451;-95
2021/05/17 12:32:22;;;;;;;2.20;2.10;;;;;;;;;;5044200;28;20461;-95
2021/05/17 12:34:55;;;;;;;3.40;2.60;;;;;;;;;;5044365;28;20459;-96
2021/05/17 12:37:22;;;;;;;4.20;2.63;;;;;;;;;;5047834;28;20523;-95
2021/05/17 12:40:03;;;;;;;2.30;2.10;;;;;;;;;;5062917;28;20529;-95
2021/05/17 12:42:29;;;;;;;3.50;2.50;;;;;;;;;;5043930;28;20457;-94
2021/05/17 12:45:02;;;;;;;2.30;2.20;;;;;;;;;;5056623;23;20491;-96
2021/05/17 12:47:36;;;;;;;2.50;2.30;;;;;;;;;;5041548;28;20489;-95
2021/05/17 12:50:03;;;;;;;2.13;2.03;;;;;;;;;;5061710;28;20454;-96
2021/05/17 12:52:32;;;;;;;2.60;2.40;;;;;;;;;;5046513;28;20454;-96
2021/05/17 12:55:12;;;;;;;5.23;2.50;;;;;;;;;;5052882;28;20461;-96
2021/05/17 12:57:42;;;;;;;4.60;2.50;;;;;;;;;;5045254;28;20461;-95
2021/05/17 13:00:08;;;;;;;2.97;2.30;;;;;;;;;;5057367;28;20460;-95
2021/05/17 13:02:34;;;;;;;3.60;2.50;;;;;;;;;;5062802;28;20453;-94
2021/05/17 13:05:00;;;;;;;5.50;2.60;;;;;;;;;;5041222;28;20552;-95
2021/05/17 13:07:26;;;;;;;3.20;2.47;;;;;;;;;;5041055;28;20480;-95
2021/05/17 13:09:55;;;;;;;2.50;2.30;;;;;;;;;;5048717;28;21684;-95
2021/05/17 13:12:21;;;;;;;2.20;2.00;;;;;;;;;;5061559;28;20448;-94
2021/05/17 13:14:48;;;;;;;2.70;2.10;;;;;;;;;;5051847;28;20463;-96
2021/05/17 13:17:15;;;;;;;3.30;2.20;;;;;;;;;;5059570;28;20484;-95
2021/05/17 13:19:46;;;;;;;2.17;1.90;;;;;;;;;;5053080;28;20452;-95
2021/05/17 13:30:54;;;;;;;2.50;2.30;;;;;;;;;;5045397;28;20457;-95
2021/05/17 13:33:22;;;;;;;3.30;2.00;;;;;;;;;;5058898;28;20476;-96
2021/05/17 13:35:49;;;;;;;2.23;2.03;;;;;;;;;;5053109;28;20448;-96
2021/05/17 13:38:15;;;;;;;2.97;2.30;;;;;;;;;;5060683;28;21629;-95
2021/05/17 13:40:42;;;;;;;2.53;2.33;;;;;;;;;;5056690;28;20464;-96
2021/05/17 13:43:08;;;;;;;4.83;2.50;;;;;;;;;;5050848;28;21173;-96
2021/05/17 13:45:34;;;;;;;3.57;2.20;;;;;;;;;;5030627;28;20496;-94
2021/05/17 13:48:00;;;;;;;7.47;2.60;;;;;;;;;;5035857;28;20494;-96
2021/05/17 13:50:27;;;;;;;5.77;2.67;;;;;;;;;;5030129;28;20808;-96
2021/05/17 13:52:55;;;;;;;5.70;2.57;;;;;;;;;;5038111;28;20456;-96
2021/05/17 13:55:21;;;;;;;4.43;2.60;;;;;;;;;;5020880;28;20448;-96
2021/05/17 13:57:51;;;;;;;2.80;2.30;;;;;;;;;;5023340;28;20463;-94
2021/05/17 14:00:18;;;;;;;6.13;3.00;;;;;;;;;;5021582;28;21171;-95
2021/05/17 14:02:44;;;;;;;3.47;2.97;;;;;;;;;;5029499;28;20474;-96
2021/05/17 14:05:10;;;;;;;3.30;3.00;;;;;;;;;;5027729;28;20448;-95
2021/05/17 14:07:36;;;;;;;4.47;2.70;;;;;;;;;;5030362;28;20577;-93
2021/05/17 14:10:02;;;;;;;12.93;3.10;;;;;;;;;;5027970;28;20436;-94
2021/05/17 14:12:28;;;;;;;3.10;2.80;;;;;;;;;;5024389;28;20459;-94
2021/05/17 14:14:55;;;;;;;3.87;2.77;;;;;;;;;;5021340;28;20494;-94
2021/05/17 14:17:21;;;;;;;2.80;2.50;;;;;;;;;;5026665;28;20459;-95
2021/05/17 14:19:47;;;;;;;3.67;2.80;;;;;;;;;;5041436;28;20458;-96
2021/05/17 14:22:13;;;;;;;3.30;2.90;;;;;;;;;;5028780;28;20495;-95
2021/05/17 14:24:39;;;;;;;5.43;2.87;;;;;;;;;;5023008;28;20514;-95
2021/05/17 14:27:07;;;;;;;4.60;2.40;;;;;;;;;;5024651;28;20447;-94
2021/05/17 14:29:33;;;;;;;3.30;2.73;;;;;;;;;;5021950;28;20592;-96
2021/05/17 14:32:00;;;;;;;3.93;2.97;;;;;;;;;;5025712;28;20462;-95
2021/05/17 14:34:26;;;;;;;4.83;2.30;;;;;;;;;;5027141;28;20510;-95
2021/05/17 14:36:54;;;;;;;10.20;2.67;;;;;;;;;;5025945;28;20464;-96
2021/05/17 14:39:20;;;;;;;4.63;2.47;;;;;;;;;;5042885;28;20489;-96
2021/05/17 14:41:46;;;;;;;3.10;2.60;;;;;;;;;;5021907;28;20458;-94
2021/05/17 14:44:12;;;;;;;4.73;2.77;;;;;;;;;;5022867;28;20471;-94
2021/05/17 14:46:38;;;;;;;2.70;2.20;;;;;;;;;;5022413;28;20705;-94
2021/05/17 14:49:05;;;;;;;5.00;2.50;;;;;;;;;;5020517;28;20487;-94
2021/05/17 14:51:31;;;;;;;5.93;2.67;;;;;;;;;;5016607;28;20451;-95
2021/05/17 14:53:57;;;;;;;3.27;2.70;;;;;;;;;;5046310;22;20485;-95
2021/05/17 14:56:23;;;;;;;3.90;2.33;;;;;;;;;;5060145;28;20528;-96
2021/05/17 14:58:49;;;;;;;3.50;2.50;;;;;;;;;;5075309;28;20481;-95
2021/05/17 15:01:15;;;;;;;4.70;2.70;;;;;;;;;;5068983;28;20476;-95
2021/05/17 15:03:42;;;;;;;15.63;2.60;;;;;;;;;;5072231;28;20445;-96
2021/05/17 15:06:09;;;;;;;4.77;2.20;;;;;;;;;;5065070;28;20455;-94
2021/05/17 15:08:35;;;;;;;3.47;2.80;;;;;;;;;;5061790;28;20497;-96
2021/05/17 15:11:01;;;;;;;3.57;2.60;;;;;;;;;;5071001;28;20442;-96
2021/05/17 15:13:35;;;;;;;2.17;2.03;;;;;;;;;;5061978;28;20454;-96
2021/05/17 15:16:02;;;;;;;8.47;2.83;;;;;;;;;;5069111;28;20426;-96
2021/05/17 15:18:28;;;;;;;3.37;2.47;;;;;;;;;;5076993;22;20504;-96
2021/05/17 15:20:55;;;;;;;3.37;2.63;;;;;;;;;;5050208;28;20454;-96
2021/05/17 15:23:36;;;;;;;2.40;2.20;;;;;;;;;;5059769;28;20554;-96
2021/05/17 15:26:02;;;;;;;4.13;2.43;;;;;;;;;;5053390;28;20462;-96
2021/05/17 15:28:28;;;;;;;19.33;3.40;;;;;;;;;;5058484;28;20488;-96
2021/05/17 15:31:22;;;;;;;2.60;2.40;;;;;;;;;;5251617;22;20493;-94
2021/05/17 15:34:05;;;;;;;8.40;2.50;;;;;;;;;;5093466;28;20441;-96
2021/05/17 15:37:06;;;;;;;2.40;2.20;;;;;;;;;;5135862;22;20836;-96
2021/05/17 15:39:40;;;;;;;2.97;2.63;;;;;;;;;;5066410;28;20850;-96
2021/05/17 15:42:06;;;;;;;4.43;2.47;;;;;;;;;;5201471;22;20450;-96
2021/05/17 15:45:00;;;;;;;4.30;2.83;;;;;;;;;;5066408;28;20498;-96
2021/05/17 15:47:26;;;;;;;2.60;2.20;;;;;;;;;;5068000;28;20477;-96
2021/05/17 15:49:52;;;;;;;7.53;2.50;;;;;;;;;;5065431;28;20453;-96
2021/05/17 15:52:18;;;;;;;2.33;2.23;;;;;;;;;;5075220;28;20456;-95
2021/05/17 15:57:56;;;;;;;8.40;2.90;;;;;;;;;;5092910;22;21725;-96
2021/05/17 16:00:27;;;;;;;3.33;2.30;;;;;;;;;;5075915;28;20455;-96
2021/05/17 16:02:58;;;;;;;11.50;2.63;;;;;;;;;;5070415;28;20453;-96
2021/05/17 16:05:26;;;;;;;8.73;3.10;;;;;;;;;;5065497;28;20446;-96
2021/05/17 16:07:52;;;;;;;2.90;2.70;;;;;;;;;;5395930;22;20490;-96
2021/05/17 16:10:19;;;;;;;2.93;2.60;;;;;;;;;;5058073;28;20456;-96
2021/05/17 16:13:01;;;;;;;5.10;2.80;;;;;;;;;;5072606;28;20446;-96
2021/05/17 16:15:35;;;;;;;10.70;3.00;;;;;;;;;;5057990;28;20450;-96
2021/05/17 16:18:20;;;;;;;4.03;2.87;;;;;;;;;;5071609;28;20442;-96
2021/05/17 16:23:33;;;;;;;4.10;2.87;;;;;;;;;;5067722;28;20453;-95
2021/05/17 16:25:59;;;;;;;4.00;2.63;;;;;;;;;;5056914;28;20441;-96
2021/05/17 16:28:25;;;;;;;3.00;2.50;;;;;;;;;;5062484;28;20504;-94
2021/05/17 16:30:52;;;;;;;6.67;4.03;;;;;;;;;;5057677;28;20469;-96
2021/05/17 16:33:18;;;;;;;3.30;2.90;;;;;;;;;;5057405;28;20458;-96
2021/05/17 16:35:44;;;;;;;3.00;2.80;;;;;;;;;;5047490;28;20479;-96
2021/05/17 16:38:10;;;;;;;3.13;2.90;;;;;;;;;;5054311;28;21006;-96
2021/05/17 16:40:36;;;;;;;4.50;2.80;;;;;;;;;;5064683;28;20466;-96
2021/05/17 16:43:02;;;;;;;4.53;2.83;;;;;;;;;;5057147;28;20535;-96
2021/05/17 16:45:28;;;;;;;3.57;2.80;;;;;;;;;;5078692;28;20458;-96
2021/05/17 16:47:55;;;;;;;3.63;2.93;;;;;;;;;;5074820;28;20480;-96
2021/05/17 16:50:21;;;;;;;2.70;2.50;;;;;;;;;;5064279;28;20463;-96
2021/05/17 16:52:48;;;;;;;2.90;2.50;;;;;;;;;;5061065;28;20453;-96
2021/05/17 16:55:16;;;;;;;4.63;3.57;;;;;;;;;;5061717;28;20459;-96
2021/05/17 16:57:42;;;;;;;17.87;3.50;;;;;;;;;;5059163;28;20478;-96
2021/05/17 17:00:09;;;;;;;6.07;3.10;;;;;;;;;;5065475;28;20469;-96
2021/05/17 17:02:37;;;;;;;8.77;3.43;;;;;;;;;;5059930;28;20492;-96
2021/05/17 17:05:04;;;;;;;7.23;3.33;;;;;;;;;;5062250;28;20433;-96
2021/05/17 17:07:30;;;;;;;5.07;2.93;;;;;;;;;;5048117;28;20466;-96
2021/05/17 17:09:57;;;;;;;3.10;2.90;;;;;;;;;;5057846;28;20453;-96
2021/05/17 17:12:23;;;;;;;3.27;2.93;;;;;;;;;;5048903;28;20499;-96
2021/05/17 17:14:49;;;;;;;8.60;3.30;;;;;;;;;;5065593;28;20699;-96
2021/05/17 17:17:15;;;;;;;4.10;3.03;;;;;;;;;;5052391;28;20450;-96
2021/05/17 17:19:41;;;;;;;5.73;3.27;;;;;;;;;;5060086;28;20464;-96
2021/05/17 17:22:08;;;;;;;8.50;3.30;;;;;;;;;;5055147;28;20456;-96
2021/05/17 17:24:41;;;;;;;10.10;3.77;;;;;;;;;;5056179;28;21426;-96
2021/05/17 17:27:07;;;;;;;4.63;3.57;;;;;;;;;;5059130;28;20488;-96
2021/05/17 17:29:34;;;;;;;5.87;3.20;;;;;;;;;;5066838;28;20517;-96
2021/05/17 17:32:00;;;;;;;3.00;2.70;;;;;;;;;;5072157;28;20441;-96
2021/05/17 17:34:27;;;;;;;5.97;3.40;;;;;;;;;;5065625;28;20459;-96
2021/05/17 17:36:53;;;;;;;4.83;4.30;;;;;;;;;;5067802;28;20986;-96
2021/05/17 17:39:21;;;;;;;4.00;3.70;;;;;;;;;;5075697;28;20542;-96
2021/05/17 17:41:47;;;;;;;7.80;4.13;;;;;;;;;;5071346;28;20497;-96
2021/05/17 17:44:13;;;;;;;4.57;3.37;;;;;;;;;;5066907;28;20684;-96
2021/05/17 17:46:40;;;;;;;5.53;4.17;;;;;;;;;;5074373;28;20469;-96
2021/05/17 17:49:07;;;;;;;5.17;3.57;;;;;;;;;;5067463;28;20482;-96
2021/05/17 17:51:34;;;;;;;4.23;3.77;;;;;;;;;;5061757;28;20689;-96
2021/05/17 17:54:00;;;;;;;4.97;4.07;;;;;;;;;;5066601;28;20463;-96
2021/05/17 17:56:30;;;;;;;5.67;4.50;;;;;;;;;;5082347;28;20457;-96
2021/05/17 17:58:57;;;;;;;5.10;4.10;;;;;;;;;;5334102;22;20478;-96
2021/05/17 18:01:25;;;;;;;6.97;4.70;;;;;;;;;;5071270;28;20544;-96
2021/05/17 18:03:53;;;;;;;4.90;4.50;;;;;;;;;;5068122;28;20485;-97
2021/05/17 18:12:36;;;;;;;6.37;4.27;;;;;;;;;;5117170;22;20496;-96
2021/05/17 18:15:02;;;;;;;9.30;4.60;;;;;;;;;;5070265;28;20454;-96
2021/05/17 18:37:49;;;;;;;7.13;4.23;;;;;;;;;;5047963;28;20486;-96
2021/05/17 18:43:44;;;;;;;5.43;4.60;;;;;;;;;;5159152;22;20519;-96
2021/05/17 19:18:32;;;;;;;6.50;6.00;;;;;;;;;;5039463;28;20886;-96
2021/05/17 19:20:58;;;;;;;7.80;6.87;;;;;;;;;;5035516;28;20519;-96
2021/05/17 19:23:24;;;;;;;8.70;7.00;;;;;;;;;;5036369;28;20447;-96
2021/05/17 19:25:52;;;;;;;10.53;6.93;;;;;;;;;;5046223;28;20449;-96
2021/05/17 19:28:19;;;;;;;11.33;7.80;;;;;;;;;;5039151;28;20514;-96
2021/05/17 19:30:45;;;;;;;14.30;7.27;;;;;;;;;;5614435;22;20515;-96
2021/05/17 19:33:12;;;;;;;9.20;7.67;;;;;;;;;;5071847;28;20462;-96
2021/05/17 19:38:14;;;;;;;10.50;7.40;;;;;;;;;;6049072;22;20522;-96
2021/05/17 19:40:41;;;;;;;7.67;6.87;;;;;;;;;;5063134;28;20501;-96
2021/05/17 19:45:38;;;;;;;8.17;7.37;;;;;;;;;;5067391;28;20486;-96
2021/05/17 19:48:04;;;;;;;8.00;7.20;;;;;;;;;;5068406;28;20469;-96
2021/05/17 19:50:31;;;;;;;10.27;7.10;;;;;;;;;;5064048;28;20456;-96
2021/05/17 19:52:57;;;;;;;8.13;6.77;;;;;;;;;;5057414;28;20446;-96
2021/05/17 20:03:35;;;;;;;8.60;7.80;;;;;;;;;;5348649;22;20560;-96
2021/05/17 20:06:04;;;;;;;7.97;7.17;;;;;;;;;;5071612;28;20430;-96
2021/05/17 20:08:32;;;;;;;10.90;7.50;;;;;;;;;;5068081;28;20457;-96
2021/05/17 22:49:49;;;;;;;15.17;13.50;;;;;;;;;;4688010;22;21036;-96
2021/05/17 22:52:15;;;;;;;15.87;14.03;;;;;;;;;;5060255;28;21059;-96
2021/05/17 22:54:42;;;;;;;17.83;14.03;;;;;;;;;;5034402;28;20822;-95
2021/05/17 22:57:08;;;;;;;22.20;15.47;;;;;;;;;;5069939;28;20445;-96
2021/05/17 23:02:10;;;;;;;20.20;17.97;;;;;;;;;;5141080;23;20473;-96
2021/05/17 23:04:36;;;;;;;21.70;19.30;;;;;;;;;;5060889;28;20541;-94
2021/05/17 23:07:03;;;;;;;22.70;20.13;;;;;;;;;;5075953;28;20449;-96